NCAR-RAP Real-Time Weather Data

Output produced by METARs form (14 October 2019  22:32 UTC)
found at http://weather.rap.ucar.edu/surface/
 
KHLN 142153Z AUTO 29011KT 10SM CLR 12/M04 A3000 RMK AO2 SLP178 T01221044
KHLN 142053Z 27015G22KT 10SM FEW075 13/M04 A3000 RMK AO2 SLP175 T01281044 53010
KHLN 141953Z 29013G23KT 10SM OVC080 12/M05 A2999 RMK AO2 SLP177 T01221050
KHLN 141853Z 27017G24KT 10SM BKN075 13/M06 A2998 RMK AO2 PK WND 32030/1807 SLP168 T01281056
KHLN 141753Z 30015G27KT 10SM BKN075 11/M06 A2997 RMK AO2 PK WND 28028/1731 SLP168 T01061061 10117 20061 53010
KHLN 141653Z 29018G25KT 10SM SCT080 10/M05 A2996 RMK AO2 PK WND 29029/1624 SLP163 T01001050
KHLN 141553Z 28011KT 10SM OVC080 10/M04 A2995 RMK AO2 SLP162 T01001039
KHLN 141453Z 27009KT 10SM BKN080 08/M03 A2994 RMK AO2 SLP158 T00781028 51021
KHLN 141353Z 23006KT 10SM BKN085 08/M02 A2991 RMK AO2 SLP149 T00781022
KHLN 141253Z 25009KT 10SM BKN060 BKN080 OVC090 08/M01 A2990 RMK AO2 SLP137 T00831011
KHLN 141153Z 25006KT 10SM BKN080 OVC100 06/00 A2987 RMK AO2 SLP128 T00610000 10061 20022 53009
KHLN 141053Z AUTO 27006KT 10SM OVC100 06/M01 A2984 RMK AO2 SLP116 T00611006
KHLN 140953Z AUTO 34003KT 10SM OVC095 04/01 A2984 RMK AO2 SLP119 T00390006
KHLN 140853Z AUTO 14004KT 10SM OVC100 06/M01 A2984 RMK AO2 SLP119 T00561006 51009
KHLN 140753Z AUTO 00000KT 10SM OVC110 02/M01 A2983 RMK AO2 SLP124 T00221011
KHLN 140653Z AUTO 00000KT 10SM CLR 03/M01 A2981 RMK AO2 SLP119 T00331006 401501028
KHLN 140553Z AUTO 00000KT 10SM CLR 04/M01 A2981 RMK AO2 SLP119 T00441006 10133 20039 56002
KHLN 140453Z AUTO 35003KT 10SM CLR 06/00 A2981 RMK AO2 SLP121 T00560000
KHLN 140353Z AUTO 30004KT 10SM CLR 05/M01 A2981 RMK AO2 SLP128 T00501006
KHLN 140253Z 00000KT 10SM CLR 06/M01 A2982 RMK AO2 SLP130 T00611011 55005
KHLN 140153Z 00000KT 10SM CLR 08/M02 A2981 RMK AO2 SLP130 T00781017
KHLN 140053Z 23004KT 10SM FEW110 10/00 A2982 RMK AO2 SLP128 T01000000
KHLN 132353Z 00000KT 10SM CLR 13/M01 A2983 RMK AO2 SLP125 T01281006 10150 20061 55007
KHLN 132253Z 00000KT 10SM OVC120 14/M02 A2982 RMK AO2 SLP120 T01391017
KHLN 132153Z AUTO 12004KT 10SM CLR 13/M02 A2983 RMK AO2 SLP124 T01331022
KHLN 132053Z 11003KT 10SM CLR 12/M01 A2986 RMK AO2 SLP135 T01171011 57023
KHLN 131953Z 11003KT 10SM CLR 11/M01 A2988 RMK AO2 SLP142 T01111011
KHLN 131853Z 00000KT 10SM CLR 09/M01 A2991 RMK AO2 SLP155 T00891011
KHLN 131753Z VRB03KT 10SM CLR 07/M01 A2993 RMK AO2 SLP165 T00671011 10067 21028 58008
KHLN 131653Z 00000KT 10SM CLR 04/M01 A2995 RMK AO2 SLP176 T00441006
KHLN 131553Z 08003KT 10SM CLR 02/M02 A2996 RMK AO2 SLP182 T00171017
KHLN 131453Z 00000KT 10SM CLR 01/M03 A2996 RMK AO2 SLP181 T00061028 53004
KHLN 131353Z 00000KT 10SM CLR M02/M04 A2995 RMK AO2 SLP183 T10221044
KHLN 131253Z 00000KT 10SM CLR M02/M04 A2995 RMK AO2 SLP179 T10221044
KHLN 131153Z 00000KT 10SM CLR M01/M04 A2995 RMK AO2 SLP169 T10111044 10017 21017 56004
KHLN 131053Z AUTO 00000KT 10SM CLR M01/M04 A2995 RMK AO2 SLP168 T10061039
KHLN 130953Z AUTO 00000KT 10SM CLR M01/M04 A2995 RMK AO2 SLP169 T10061039
KHLN 130853Z AUTO 00000KT 10SM CLR M01/M04 A2996 RMK AO2 SLP173 T10061039 53003
KHLN 130753Z AUTO 00000KT 10SM CLR 01/M03 A2995 RMK AO2 SLP172 T00061033
KHLN 130653Z AUTO 00000KT 10SM CLR 01/M03 A2995 RMK AO2 SLP173 T00111028 401221067
KHLN 130553Z AUTO 00000KT 10SM CLR 02/M03 A2995 RMK AO2 SLP177 T00171028 10122 20011 56001
KHLN 130453Z AUTO 00000KT 10SM CLR 02/M03 A2995 RMK AO2 SLP181 T00171028
KHLN 130353Z AUTO 00000KT 10SM CLR 03/M03 A2995 RMK AO2 SLP182 T00331028
KHLN 130253Z 24005KT 10SM CLR 04/M03 A2995 RMK AO2 SLP184 T00441028 56003
KHLN 130153Z 25007KT 10SM CLR 06/M02 A2995 RMK AO2 SLP190 T00561017
KHLN 130053Z 25006KT 10SM CLR 07/M01 A2995 RMK AO2 SLP187 T00671006
KHLN 122353Z 00000KT 10SM CLR 11/M01 A2996 RMK AO2 SLP180 T01111011 10122 20039 56013
KHLN 122253Z 12004KT 10SM CLR 12/M01 A2997 RMK AO2 SLP182 T01171011